sensor_id;sensor_type;location;lat;lon;timestamp;P1;durP1;ratioP1;P2;durP2;ratioP2
1725;SDS011;41776;48.260;8.928;2023-08-01T00:00:02;6.28;;;2.67;;
1725;SDS011;41776;48.260;8.928;2023-08-01T00:02:32;5.10;;;2.53;;
1725;SDS011;41776;48.260;8.928;2023-08-01T00:04:58;4.20;;;2.10;;
1725;SDS011;41776;48.260;8.928;2023-08-01T00:07:25;6.53;;;2.50;;
1725;SDS011;41776;48.260;8.928;2023-08-01T00:09:54;5.18;;;2.45;;
1725;SDS011;41776;48.260;8.928;2023-08-01T00:12:21;4.68;;;2.60;;
1725;SDS011;41776;48.260;8.928;2023-08-01T00:14:47;5.45;;;2.90;;
1725;SDS011;41776;48.260;8.928;2023-08-01T00:17:14;6.10;;;2.38;;
1725;SDS011;41776;48.260;8.928;2023-08-01T00:19:41;4.50;;;2.58;;
1725;SDS011;41776;48.260;8.928;2023-08-01T00:22:07;6.18;;;2.80;;
1725;SDS011;41776;48.260;8.928;2023-08-01T00:24:34;7.38;;;2.25;;
1725;SDS011;41776;48.260;8.928;2023-08-01T00:27:03;5.65;;;2.78;;
1725;SDS011;41776;48.260;8.928;2023-08-01T00:29:30;4.43;;;2.22;;
1725;SDS011;41776;48.260;8.928;2023-08-01T00:31:56;6.65;;;2.47;;
1725;SDS011;41776;48.260;8.928;2023-08-01T00:34:23;5.13;;;2.25;;
1725;SDS011;41776;48.260;8.928;2023-08-01T00:36:49;5.05;;;2.15;;
1725;SDS011;41776;48.260;8.928;2023-08-01T00:39:16;4.13;;;2.42;;
1725;SDS011;41776;48.260;8.928;2023-08-01T00:41:42;5.80;;;2.47;;
1725;SDS011;41776;48.260;8.928;2023-08-01T00:44:10;5.30;;;2.50;;
1725;SDS011;41776;48.260;8.928;2023-08-01T00:46:36;6.25;;;2.50;;
1725;SDS011;41776;48.260;8.928;2023-08-01T00:49:03;7.43;;;2.72;;
1725;SDS011;41776;48.260;8.928;2023-08-01T00:51:30;6.80;;;2.65;;
1725;SDS011;41776;48.260;8.928;2023-08-01T00:53:58;5.50;;;2.63;;
1725;SDS011;41776;48.260;8.928;2023-08-01T00:56:26;5.32;;;2.55;;
1725;SDS011;41776;48.260;8.928;2023-08-01T00:58:53;8.52;;;2.65;;
1725;SDS011;41776;48.260;8.928;2023-08-01T01:01:20;5.20;;;2.25;;
1725;SDS011;41776;48.260;8.928;2023-08-01T01:03:47;6.35;;;2.50;;
1725;SDS011;41776;48.260;8.928;2023-08-01T01:06:19;5.30;;;2.20;;
1725;SDS011;41776;48.260;8.928;2023-08-01T01:08:48;4.05;;;2.42;;
1725;SDS011;41776;48.260;8.928;2023-08-01T01:11:15;7.53;;;2.40;;
1725;SDS011;41776;48.260;8.928;2023-08-01T01:13:41;5.30;;;2.40;;
1725;SDS011;41776;48.260;8.928;2023-08-01T01:16:08;4.80;;;3.03;;
1725;SDS011;41776;48.260;8.928;2023-08-01T01:18:36;5.20;;;2.60;;
1725;SDS011;41776;48.260;8.928;2023-08-01T01:21:04;5.03;;;2.53;;
1725;SDS011;41776;48.260;8.928;2023-08-01T01:23:30;5.18;;;2.67;;
1725;SDS011;41776;48.260;8.928;2023-08-01T01:25:59;6.00;;;2.45;;
1725;SDS011;41776;48.260;8.928;2023-08-01T01:28:27;6.72;;;2.80;;
1725;SDS011;41776;48.260;8.928;2023-08-01T01:30:54;6.20;;;2.30;;
1725;SDS011;41776;48.260;8.928;2023-08-01T01:33:22;5.88;;;2.80;;
1725;SDS011;41776;48.260;8.928;2023-08-01T01:35:49;5.07;;;2.60;;
1725;SDS011;41776;48.260;8.928;2023-08-01T01:38:17;6.43;;;2.47;;
1725;SDS011;41776;48.260;8.928;2023-08-01T01:40:43;5.35;;;2.78;;
1725;SDS011;41776;48.260;8.928;2023-08-01T01:43:10;5.20;;;2.83;;
1725;SDS011;41776;48.260;8.928;2023-08-01T01:45:36;5.35;;;2.53;;
1725;SDS011;41776;48.260;8.928;2023-08-01T01:48:03;7.38;;;2.78;;
1725;SDS011;41776;48.260;8.928;2023-08-01T01:50:29;8.82;;;2.72;;
1725;SDS011;41776;48.260;8.928;2023-08-01T01:52:56;6.53;;;2.72;;
1725;SDS011;41776;48.260;8.928;2023-08-01T01:55:24;4.40;;;2.67;;
1725;SDS011;41776;48.260;8.928;2023-08-01T01:57:50;8.68;;;3.28;;
1725;SDS011;41776;48.260;8.928;2023-08-01T02:00:17;7.07;;;2.63;;
1725;SDS011;41776;48.260;8.928;2023-08-01T02:02:43;5.43;;;2.72;;
1725;SDS011;41776;48.260;8.928;2023-08-01T02:05:10;4.32;;;2.40;;
1725;SDS011;41776;48.260;8.928;2023-08-01T02:07:36;7.07;;;3.45;;
1725;SDS011;41776;48.260;8.928;2023-08-01T02:10:03;5.43;;;2.80;;
1725;SDS011;41776;48.260;8.928;2023-08-01T02:12:31;6.00;;;2.60;;
1725;SDS011;41776;48.260;8.928;2023-08-01T02:14:59;5.95;;;2.90;;
1725;SDS011;41776;48.260;8.928;2023-08-01T02:17:26;6.18;;;2.78;;
1725;SDS011;41776;48.260;8.928;2023-08-01T02:19:52;6.00;;;2.92;;
1725;SDS011;41776;48.260;8.928;2023-08-01T02:22:19;5.70;;;2.97;;
1725;SDS011;41776;48.260;8.928;2023-08-01T02:24:45;8.73;;;3.65;;
1725;SDS011;41776;48.260;8.928;2023-08-01T02:27:12;5.80;;;3.08;;
1725;SDS011;41776;48.260;8.928;2023-08-01T02:29:40;7.75;;;2.50;;
1725;SDS011;41776;48.260;8.928;2023-08-01T02:32:07;5.80;;;2.45;;
1725;SDS011;41776;48.260;8.928;2023-08-01T02:34:33;5.43;;;3.00;;
1725;SDS011;41776;48.260;8.928;2023-08-01T02:37:03;7.07;;;2.95;;
1725;SDS011;41776;48.260;8.928;2023-08-01T02:39:30;6.28;;;2.63;;
1725;SDS011;41776;48.260;8.928;2023-08-01T02:41:58;5.43;;;2.55;;
1725;SDS011;41776;48.260;8.928;2023-08-01T02:44:28;5.75;;;2.60;;
1725;SDS011;41776;48.260;8.928;2023-08-01T02:46:56;6.35;;;2.60;;
1725;SDS011;41776;48.260;8.928;2023-08-01T02:49:23;4.53;;;2.45;;
1725;SDS011;41776;48.260;8.928;2023-08-01T02:51:48;12.07;;;2.40;;
1725;SDS011;41776;48.260;8.928;2023-08-01T02:54:15;5.45;;;3.05;;
1725;SDS011;41776;48.260;8.928;2023-08-01T02:56:44;5.22;;;2.58;;
1725;SDS011;41776;48.260;8.928;2023-08-01T02:59:20;6.32;;;2.63;;
1725;SDS011;41776;48.260;8.928;2023-08-01T03:01:47;5.95;;;2.67;;
1725;SDS011;41776;48.260;8.928;2023-08-01T03:04:15;10.60;;;2.80;;
1725;SDS011;41776;48.260;8.928;2023-08-01T03:06:44;7.40;;;2.40;;
1725;SDS011;41776;48.260;8.928;2023-08-01T03:09:10;8.00;;;2.90;;
1725;SDS011;41776;48.260;8.928;2023-08-01T03:11:37;7.20;;;2.38;;
1725;SDS011;41776;48.260;8.928;2023-08-01T03:14:04;7.10;;;2.40;;
1725;SDS011;41776;48.260;8.928;2023-08-01T03:16:30;5.90;;;2.28;;
1725;SDS011;41776;48.260;8.928;2023-08-01T03:18:57;9.88;;;2.55;;
1725;SDS011;41776;48.260;8.928;2023-08-01T03:21:28;8.57;;;2.80;;
1725;SDS011;41776;48.260;8.928;2023-08-01T03:23:54;5.28;;;2.38;;
1725;SDS011;41776;48.260;8.928;2023-08-01T03:26:22;6.13;;;2.58;;
1725;SDS011;41776;48.260;8.928;2023-08-01T03:28:48;4.25;;;2.38;;
1725;SDS011;41776;48.260;8.928;2023-08-01T03:31:15;5.72;;;2.72;;
1725;SDS011;41776;48.260;8.928;2023-08-01T03:33:41;4.60;;;2.22;;
1725;SDS011;41776;48.260;8.928;2023-08-01T03:36:08;7.72;;;2.38;;
1725;SDS011;41776;48.260;8.928;2023-08-01T03:38:36;6.43;;;2.47;;
1725;SDS011;41776;48.260;8.928;2023-08-01T03:41:03;5.63;;;2.63;;
1725;SDS011;41776;48.260;8.928;2023-08-01T03:43:30;5.70;;;2.83;;
1725;SDS011;41776;48.260;8.928;2023-08-01T03:45:56;7.53;;;2.70;;
1725;SDS011;41776;48.260;8.928;2023-08-01T03:48:23;5.68;;;2.33;;
1725;SDS011;41776;48.260;8.928;2023-08-01T03:50:49;8.82;;;2.50;;
1725;SDS011;41776;48.260;8.928;2023-08-01T03:53:16;5.78;;;2.20;;
1725;SDS011;41776;48.260;8.928;2023-08-01T03:55:44;11.25;;;2.85;;
1725;SDS011;41776;48.260;8.928;2023-08-01T03:58:13;8.70;;;2.60;;
1725;SDS011;41776;48.260;8.928;2023-08-01T04:00:39;4.72;;;2.17;;
1725;SDS011;41776;48.260;8.928;2023-08-01T04:03:06;6.72;;;2.58;;
1725;SDS011;41776;48.260;8.928;2023-08-01T04:05:32;6.55;;;2.60;;
1725;SDS011;41776;48.260;8.928;2023-08-01T04:07:59;8.95;;;2.45;;
1725;SDS011;41776;48.260;8.928;2023-08-01T04:10:25;5.90;;;2.60;;
1725;SDS011;41776;48.260;8.928;2023-08-01T04:12:54;7.93;;;2.88;;
1725;SDS011;41776;48.260;8.928;2023-08-01T04:15:20;9.70;;;3.03;;
1725;SDS011;41776;48.260;8.928;2023-08-01T04:17:47;7.40;;;2.28;;
1725;SDS011;41776;48.260;8.928;2023-08-01T04:20:13;6.97;;;2.65;;
1725;SDS011;41776;48.260;8.928;2023-08-01T04:22:40;6.00;;;2.60;;
1725;SDS011;41776;48.260;8.928;2023-08-01T04:25:07;8.15;;;3.10;;
1725;SDS011;41776;48.260;8.928;2023-08-01T04:27:34;6.88;;;2.85;;
1725;SDS011;41776;48.260;8.928;2023-08-01T04:30:02;5.57;;;2.55;;
1725;SDS011;41776;48.260;8.928;2023-08-01T04:32:29;5.20;;;2.47;;
1725;SDS011;41776;48.260;8.928;2023-08-01T04:34:55;8.38;;;3.53;;
1725;SDS011;41776;48.260;8.928;2023-08-01T04:37:22;7.45;;;2.65;;
1725;SDS011;41776;48.260;8.928;2023-08-01T04:39:50;7.78;;;3.17;;
1725;SDS011;41776;48.260;8.928;2023-08-01T04:42:17;6.53;;;2.70;;
1725;SDS011;41776;48.260;8.928;2023-08-01T04:44:43;8.73;;;3.13;;
1725;SDS011;41776;48.260;8.928;2023-08-01T04:47:11;8.05;;;2.92;;
1725;SDS011;41776;48.260;8.928;2023-08-01T04:49:39;11.38;;;2.92;;
1725;SDS011;41776;48.260;8.928;2023-08-01T04:52:06;6.07;;;2.85;;
1725;SDS011;41776;48.260;8.928;2023-08-01T04:54:33;7.35;;;3.20;;
1725;SDS011;41776;48.260;8.928;2023-08-01T04:57:00;8.25;;;3.17;;
1725;SDS011;41776;48.260;8.928;2023-08-01T04:59:26;5.13;;;2.65;;
1725;SDS011;41776;48.260;8.928;2023-08-01T05:01:53;6.60;;;2.80;;
1725;SDS011;41776;48.260;8.928;2023-08-01T05:04:21;9.25;;;2.92;;
1725;SDS011;41776;48.260;8.928;2023-08-01T05:06:47;5.22;;;2.47;;
1725;SDS011;41776;48.260;8.928;2023-08-01T05:09:14;5.07;;;2.50;;
1725;SDS011;41776;48.260;8.928;2023-08-01T05:11:40;5.85;;;2.58;;
1725;SDS011;41776;48.260;8.928;2023-08-01T05:14:07;5.15;;;2.30;;
1725;SDS011;41776;48.260;8.928;2023-08-01T05:16:33;3.83;;;2.22;;
1725;SDS011;41776;48.260;8.928;2023-08-01T05:18:59;4.10;;;1.92;;
1725;SDS011;41776;48.260;8.928;2023-08-01T05:21:27;3.80;;;1.75;;
1725;SDS011;41776;48.260;8.928;2023-08-01T05:23:54;5.05;;;2.40;;
1725;SDS011;41776;48.260;8.928;2023-08-01T05:26:20;3.58;;;2.15;;
1725;SDS011;41776;48.260;8.928;2023-08-01T05:28:47;5.82;;;2.70;;
1725;SDS011;41776;48.260;8.928;2023-08-01T05:31:14;7.07;;;2.70;;
1725;SDS011;41776;48.260;8.928;2023-08-01T05:33:40;6.20;;;2.78;;
1725;SDS011;41776;48.260;8.928;2023-08-01T05:36:07;4.25;;;2.67;;
1725;SDS011;41776;48.260;8.928;2023-08-01T05:38:34;5.95;;;3.00;;
1725;SDS011;41776;48.260;8.928;2023-08-01T05:41:01;7.43;;;2.90;;
1725;SDS011;41776;48.260;8.928;2023-08-01T05:43:27;7.78;;;2.83;;
1725;SDS011;41776;48.260;8.928;2023-08-01T05:45:54;7.97;;;3.10;;
1725;SDS011;41776;48.260;8.928;2023-08-01T05:48:20;6.38;;;2.88;;
1725;SDS011;41776;48.260;8.928;2023-08-01T05:50:47;7.05;;;3.55;;
1725;SDS011;41776;48.260;8.928;2023-08-01T05:53:13;5.97;;;3.35;;
1725;SDS011;41776;48.260;8.928;2023-08-01T05:55:41;6.07;;;3.40;;
1725;SDS011;41776;48.260;8.928;2023-08-01T05:58:08;6.40;;;2.90;;
1725;SDS011;41776;48.260;8.928;2023-08-01T06:00:34;5.80;;;2.85;;
1725;SDS011;41776;48.260;8.928;2023-08-01T06:03:01;7.90;;;3.20;;
1725;SDS011;41776;48.260;8.928;2023-08-01T06:05:27;7.07;;;2.85;;
1725;SDS011;41776;48.260;8.928;2023-08-01T06:07:54;5.82;;;3.00;;
1725;SDS011;41776;48.260;8.928;2023-08-01T06:10:20;7.15;;;2.95;;
1725;SDS011;41776;48.260;8.928;2023-08-01T06:12:49;7.68;;;3.35;;
1725;SDS011;41776;48.260;8.928;2023-08-01T06:15:15;5.53;;;3.20;;
1725;SDS011;41776;48.260;8.928;2023-08-01T06:17:42;10.20;;;3.00;;
1725;SDS011;41776;48.260;8.928;2023-08-01T06:20:09;7.88;;;3.22;;
1725;SDS011;41776;48.260;8.928;2023-08-01T06:22:36;6.20;;;2.92;;
1725;SDS011;41776;48.260;8.928;2023-08-01T06:25:03;7.90;;;3.20;;
1725;SDS011;41776;48.260;8.928;2023-08-01T06:27:30;6.28;;;3.20;;
1725;SDS011;41776;48.260;8.928;2023-08-01T06:29:58;6.18;;;3.03;;
1725;SDS011;41776;48.260;8.928;2023-08-01T06:32:24;6.35;;;3.20;;
1725;SDS011;41776;48.260;8.928;2023-08-01T06:34:51;6.72;;;2.97;;
1725;SDS011;41776;48.260;8.928;2023-08-01T06:37:18;7.75;;;3.58;;
1725;SDS011;41776;48.260;8.928;2023-08-01T06:39:44;6.97;;;3.15;;
1725;SDS011;41776;48.260;8.928;2023-08-01T06:42:11;8.95;;;3.83;;
1725;SDS011;41776;48.260;8.928;2023-08-01T06:44:37;6.00;;;3.50;;
1725;SDS011;41776;48.260;8.928;2023-08-01T06:47:06;5.78;;;3.25;;
1725;SDS011;41776;48.260;8.928;2023-08-01T06:49:32;6.68;;;3.65;;
1725;SDS011;41776;48.260;8.928;2023-08-01T06:51:59;7.88;;;3.75;;
1725;SDS011;41776;48.260;8.928;2023-08-01T06:54:25;6.82;;;3.33;;
1725;SDS011;41776;48.260;8.928;2023-08-01T06:56:52;5.65;;;2.63;;
1725;SDS011;41776;48.260;8.928;2023-08-01T06:59:18;5.78;;;3.05;;
1725;SDS011;41776;48.260;8.928;2023-08-01T07:01:46;6.95;;;3.42;;
1725;SDS011;41776;48.260;8.928;2023-08-01T07:04:14;6.67;;;3.30;;
1725;SDS011;41776;48.260;8.928;2023-08-01T07:06:40;6.80;;;3.25;;
1725;SDS011;41776;48.260;8.928;2023-08-01T07:09:07;7.10;;;3.50;;
1725;SDS011;41776;48.260;8.928;2023-08-01T07:11:33;6.38;;;2.80;;
1725;SDS011;41776;48.260;8.928;2023-08-01T07:14:00;5.35;;;2.90;;
1725;SDS011;41776;48.260;8.928;2023-08-01T07:16:26;7.63;;;3.30;;
1725;SDS011;41776;48.260;8.928;2023-08-01T07:18:54;6.70;;;2.70;;
1725;SDS011;41776;48.260;8.928;2023-08-01T07:21:22;5.57;;;2.85;;
1725;SDS011;41776;48.260;8.928;2023-08-01T07:23:49;6.03;;;3.00;;
1725;SDS011;41776;48.260;8.928;2023-08-01T07:26:15;7.05;;;3.08;;
1725;SDS011;41776;48.260;8.928;2023-08-01T07:28:42;7.47;;;2.92;;
1725;SDS011;41776;48.260;8.928;2023-08-01T07:31:08;8.70;;;3.67;;
1725;SDS011;41776;48.260;8.928;2023-08-01T07:33:35;5.22;;;2.92;;
1725;SDS011;41776;48.260;8.928;2023-08-01T07:36:02;7.47;;;3.42;;
1725;SDS011;41776;48.260;8.928;2023-08-01T07:38:30;5.70;;;2.78;;
1725;SDS011;41776;48.260;8.928;2023-08-01T07:40:57;6.85;;;3.13;;
1725;SDS011;41776;48.260;8.928;2023-08-01T07:43:28;4.72;;;2.65;;
1725;SDS011;41776;48.260;8.928;2023-08-01T07:45:55;7.40;;;3.00;;
1725;SDS011;41776;48.260;8.928;2023-08-01T07:48:22;5.22;;;2.60;;
1725;SDS011;41776;48.260;8.928;2023-08-01T07:50:49;7.32;;;2.75;;
1725;SDS011;41776;48.260;8.928;2023-08-01T07:53:15;5.65;;;2.78;;
1725;SDS011;41776;48.260;8.928;2023-08-01T07:55:43;5.60;;;2.50;;
1725;SDS011;41776;48.260;8.928;2023-08-01T07:58:10;7.63;;;2.60;;
1725;SDS011;41776;48.260;8.928;2023-08-01T08:00:36;5.65;;;2.20;;
1725;SDS011;41776;48.260;8.928;2023-08-01T08:03:03;3.28;;;1.77;;
1725;SDS011;41776;48.260;8.928;2023-08-01T08:05:30;3.42;;;1.80;;
1725;SDS011;41776;48.260;8.928;2023-08-01T08:07:57;4.03;;;2.00;;
1725;SDS011;41776;48.260;8.928;2023-08-01T08:10:23;5.75;;;1.52;;
1725;SDS011;41776;48.260;8.928;2023-08-01T08:12:51;3.67;;;1.67;;
1725;SDS011;41776;48.260;8.928;2023-08-01T08:15:18;5.00;;;1.52;;
1725;SDS011;41776;48.260;8.928;2023-08-01T08:17:46;2.80;;;1.70;;
1725;SDS011;41776;48.260;8.928;2023-08-01T08:20:12;3.55;;;1.83;;
1725;SDS011;41776;48.260;8.928;2023-08-01T08:22:39;5.15;;;1.95;;
1725;SDS011;41776;48.260;8.928;2023-08-01T08:25:05;3.72;;;2.05;;
1725;SDS011;41776;48.260;8.928;2023-08-01T08:27:32;5.85;;;1.92;;
1725;SDS011;41776;48.260;8.928;2023-08-01T08:30:00;2.35;;;1.52;;
1725;SDS011;41776;48.260;8.928;2023-08-01T08:32:27;2.45;;;1.45;;
1725;SDS011;41776;48.260;8.928;2023-08-01T08:34:53;2.38;;;1.70;;
1725;SDS011;41776;48.260;8.928;2023-08-01T08:37:20;7.30;;;1.80;;
1725;SDS011;41776;48.260;8.928;2023-08-01T08:39:46;4.68;;;1.70;;
1725;SDS011;41776;48.260;8.928;2023-08-01T08:42:13;2.20;;;1.27;;
1725;SDS011;41776;48.260;8.928;2023-08-01T08:44:42;2.67;;;1.55;;
1725;SDS011;41776;48.260;8.928;2023-08-01T08:47:10;3.05;;;1.45;;
1725;SDS011;41776;48.260;8.928;2023-08-01T08:49:38;4.47;;;1.10;;
1725;SDS011;41776;48.260;8.928;2023-08-01T08:52:06;2.22;;;1.10;;
1725;SDS011;41776;48.260;8.928;2023-08-01T08:54:33;2.38;;;1.30;;
1725;SDS011;41776;48.260;8.928;2023-08-01T08:57:03;3.70;;;1.48;;
1725;SDS011;41776;48.260;8.928;2023-08-01T08:59:31;2.65;;;1.40;;
1725;SDS011;41776;48.260;8.928;2023-08-01T09:01:59;2.05;;;1.45;;
1725;SDS011;41776;48.260;8.928;2023-08-01T09:04:27;3.53;;;1.65;;
1725;SDS011;41776;48.260;8.928;2023-08-01T09:06:55;4.97;;;1.70;;
1725;SDS011;41776;48.260;8.928;2023-08-01T09:09:24;1.77;;;1.23;;
1725;SDS011;41776;48.260;8.928;2023-08-01T09:11:53;2.70;;;1.30;;
1725;SDS011;41776;48.260;8.928;2023-08-01T09:14:21;1.90;;;1.13;;
1725;SDS011;41776;48.260;8.928;2023-08-01T09:16:48;2.03;;;1.30;;
1725;SDS011;41776;48.260;8.928;2023-08-01T09:19:16;2.10;;;1.30;;
1725;SDS011;41776;48.260;8.928;2023-08-01T09:21:44;2.28;;;1.45;;
1725;SDS011;41776;48.260;8.928;2023-08-01T09:24:11;2.13;;;1.50;;
1725;SDS011;41776;48.260;8.928;2023-08-01T09:26:39;2.20;;;1.40;;
1725;SDS011;41776;48.260;8.928;2023-08-01T09:29:07;2.08;;;1.23;;
1725;SDS011;41776;48.260;8.928;2023-08-01T09:31:34;3.47;;;1.20;;
1725;SDS011;41776;48.260;8.928;2023-08-01T09:34:03;2.25;;;1.10;;
1725;SDS011;41776;48.260;8.928;2023-08-01T09:36:31;1.60;;;1.15;;
1725;SDS011;41776;48.260;8.928;2023-08-01T09:38:59;2.45;;;1.30;;
1725;SDS011;41776;48.260;8.928;2023-08-01T09:41:27;1.73;;;0.80;;
1725;SDS011;41776;48.260;8.928;2023-08-01T09:43:54;1.25;;;1.00;;
1725;SDS011;41776;48.260;8.928;2023-08-01T09:46:21;1.80;;;1.20;;
1725;SDS011;41776;48.260;8.928;2023-08-01T09:48:48;2.38;;;1.00;;
1725;SDS011;41776;48.260;8.928;2023-08-01T09:51:15;1.48;;;0.90;;
1725;SDS011;41776;48.260;8.928;2023-08-01T09:53:46;1.70;;;1.10;;
1725;SDS011;41776;48.260;8.928;2023-08-01T09:56:16;1.02;;;0.80;;
1725;SDS011;41776;48.260;8.928;2023-08-01T09:58:45;1.17;;;0.80;;
1725;SDS011;41776;48.260;8.928;2023-08-01T10:01:13;1.20;;;1.00;;
1725;SDS011;41776;48.260;8.928;2023-08-01T10:03:41;3.35;;;0.75;;
1725;SDS011;41776;48.260;8.928;2023-08-01T10:06:11;1.50;;;1.00;;
1725;SDS011;41776;48.260;8.928;2023-08-01T10:08:40;1.00;;;0.73;;
1725;SDS011;41776;48.260;8.928;2023-08-01T10:11:07;1.50;;;0.80;;
1725;SDS011;41776;48.260;8.928;2023-08-01T10:13:36;2.25;;;0.70;;
1725;SDS011;41776;48.260;8.928;2023-08-01T10:16:03;0.60;;;0.50;;
1725;SDS011;41776;48.260;8.928;2023-08-01T10:18:31;2.38;;;0.85;;
1725;SDS011;41776;48.260;8.928;2023-08-01T10:20:59;0.60;;;0.50;;
1725;SDS011;41776;48.260;8.928;2023-08-01T10:23:26;0.50;;;0.50;;
1725;SDS011;41776;48.260;8.928;2023-08-01T10:25:54;0.60;;;0.52;;
1725;SDS011;41776;48.260;8.928;2023-08-01T10:28:30;0.55;;;0.50;;
1725;SDS011;41776;48.260;8.928;2023-08-01T10:31:07;1.27;;;0.50;;
1725;SDS011;41776;48.260;8.928;2023-08-01T10:33:34;0.80;;;0.65;;
1725;SDS011;41776;48.260;8.928;2023-08-01T10:36:01;1.92;;;0.70;;
1725;SDS011;41776;48.260;8.928;2023-08-01T10:38:44;1.35;;;0.77;;
1725;SDS011;41776;48.260;8.928;2023-08-01T10:41:18;2.70;;;0.90;;
1725;SDS011;41776;48.260;8.928;2023-08-01T10:43:45;5.80;;;1.23;;
1725;SDS011;41776;48.260;8.928;2023-08-01T10:46:13;1.45;;;0.80;;
1725;SDS011;41776;48.260;8.928;2023-08-01T10:48:47;0.75;;;0.52;;
1725;SDS011;41776;48.260;8.928;2023-08-01T10:51:14;1.60;;;0.60;;
1725;SDS011;41776;48.260;8.928;2023-08-01T10:53:41;1.33;;;0.73;;
1725;SDS011;41776;48.260;8.928;2023-08-01T10:56:16;1.20;;;0.75;;
1725;SDS011;41776;48.260;8.928;2023-08-01T10:58:44;1.48;;;0.68;;
1725;SDS011;41776;48.260;8.928;2023-08-01T11:01:12;0.98;;;0.50;;
1725;SDS011;41776;48.260;8.928;2023-08-01T11:03:39;2.38;;;0.90;;
1725;SDS011;41776;48.260;8.928;2023-08-01T11:06:09;1.40;;;0.73;;
1725;SDS011;41776;48.260;8.928;2023-08-01T11:08:36;1.88;;;0.90;;
1725;SDS011;41776;48.260;8.928;2023-08-01T11:11:04;0.98;;;0.85;;
1725;SDS011;41776;48.260;8.928;2023-08-01T11:13:31;2.05;;;0.90;;
1725;SDS011;41776;48.260;8.928;2023-08-01T11:16:00;2.00;;;0.80;;
1725;SDS011;41776;48.260;8.928;2023-08-01T11:18:30;2.53;;;1.05;;
1725;SDS011;41776;48.260;8.928;2023-08-01T11:21:06;2.67;;;1.08;;
1725;SDS011;41776;48.260;8.928;2023-08-01T11:23:35;1.30;;;1.02;;
1725;SDS011;41776;48.260;8.928;2023-08-01T11:26:06;1.83;;;1.00;;
1725;SDS011;41776;48.260;8.928;2023-08-01T11:28:33;3.00;;;1.00;;
1725;SDS011;41776;48.260;8.928;2023-08-01T11:31:01;1.13;;;0.95;;
1725;SDS011;41776;48.260;8.928;2023-08-01T11:33:27;1.95;;;1.10;;
1725;SDS011;41776;48.260;8.928;2023-08-01T11:35:57;1.50;;;0.90;;
1725;SDS011;41776;48.260;8.928;2023-08-01T11:38:26;0.85;;;0.70;;
1725;SDS011;41776;48.260;8.928;2023-08-01T11:40:57;2.15;;;0.90;;
1725;SDS011;41776;48.260;8.928;2023-08-01T11:43:24;2.67;;;0.90;;
1725;SDS011;41776;48.260;8.928;2023-08-01T11:45:52;1.00;;;0.68;;
1725;SDS011;41776;48.260;8.928;2023-08-01T11:48:20;2.60;;;0.75;;
1725;SDS011;41776;48.260;8.928;2023-08-01T11:50:48;1.08;;;0.70;;
1725;SDS011;41776;48.260;8.928;2023-08-01T11:53:21;1.77;;;0.70;;
1725;SDS011;41776;48.260;8.928;2023-08-01T11:55:51;1.40;;;0.60;;
1725;SDS011;41776;48.260;8.928;2023-08-01T11:58:27;0.70;;;0.60;;
1725;SDS011;41776;48.260;8.928;2023-08-01T12:01:05;1.60;;;0.93;;
1725;SDS011;41776;48.260;8.928;2023-08-01T12:03:42;1.92;;;0.60;;
1725;SDS011;41776;48.260;8.928;2023-08-01T12:06:09;1.20;;;0.70;;
1725;SDS011;41776;48.260;8.928;2023-08-01T12:08:38;1.33;;;0.65;;
1725;SDS011;41776;48.260;8.928;2023-08-01T12:11:04;3.17;;;0.63;;
1725;SDS011;41776;48.260;8.928;2023-08-01T12:13:31;1.38;;;0.70;;
1725;SDS011;41776;48.260;8.928;2023-08-01T12:15:57;2.42;;;0.65;;
1725;SDS011;41776;48.260;8.928;2023-08-01T12:18:28;3.55;;;0.73;;
1725;SDS011;41776;48.260;8.928;2023-08-01T12:20:55;1.95;;;0.80;;
1725;SDS011;41776;48.260;8.928;2023-08-01T12:23:22;1.98;;;0.40;;
1725;SDS011;41776;48.260;8.928;2023-08-01T12:25:50;0.50;;;0.50;;
1725;SDS011;41776;48.260;8.928;2023-08-01T12:28:18;0.40;;;0.40;;
1725;SDS011;41776;48.260;8.928;2023-08-01T12:30:50;0.50;;;0.50;;
1725;SDS011;41776;48.260;8.928;2023-08-01T12:33:17;0.68;;;0.60;;
1725;SDS011;41776;48.260;8.928;2023-08-01T12:35:43;0.70;;;0.50;;
1725;SDS011;41776;48.260;8.928;2023-08-01T12:38:10;1.63;;;0.63;;
1725;SDS011;41776;48.260;8.928;2023-08-01T12:40:36;0.98;;;0.60;;
1725;SDS011;41776;48.260;8.928;2023-08-01T12:43:04;1.50;;;0.40;;
1725;SDS011;41776;48.260;8.928;2023-08-01T12:45:32;0.60;;;0.45;;
1725;SDS011;41776;48.260;8.928;2023-08-01T12:47:58;1.63;;;0.50;;
1725;SDS011;41776;48.260;8.928;2023-08-01T12:50:25;1.92;;;0.77;;
1725;SDS011;41776;48.260;8.928;2023-08-01T12:52:51;1.20;;;0.65;;
1725;SDS011;41776;48.260;8.928;2023-08-01T12:55:18;0.50;;;0.50;;
1725;SDS011;41776;48.260;8.928;2023-08-01T12:57:47;5.32;;;0.60;;
1725;SDS011;41776;48.260;8.928;2023-08-01T13:00:15;0.50;;;0.50;;
1725;SDS011;41776;48.260;8.928;2023-08-01T13:02:42;0.65;;;0.52;;
1725;SDS011;41776;48.260;8.928;2023-08-01T13:05:12;1.77;;;0.60;;
1725;SDS011;41776;48.260;8.928;2023-08-01T13:07:39;0.88;;;0.50;;
1725;SDS011;41776;48.260;8.928;2023-08-01T13:10:08;0.55;;;0.55;;
1725;SDS011;41776;48.260;8.928;2023-08-01T13:12:35;0.85;;;0.52;;
1725;SDS011;41776;48.260;8.928;2023-08-01T13:15:02;0.55;;;0.50;;
1725;SDS011;41776;48.260;8.928;2023-08-01T13:17:31;0.65;;;0.50;;
1725;SDS011;41776;48.260;8.928;2023-08-01T13:19:57;2.92;;;0.40;;
1725;SDS011;41776;48.260;8.928;2023-08-01T13:22:24;3.90;;;0.57;;
1725;SDS011;41776;48.260;8.928;2023-08-01T13:24:50;0.40;;;0.40;;
1725;SDS011;41776;48.260;8.928;2023-08-01T13:27:17;0.70;;;0.52;;
1725;SDS011;41776;48.260;8.928;2023-08-01T13:29:43;1.20;;;0.47;;
1725;SDS011;41776;48.260;8.928;2023-08-01T13:32:10;0.55;;;0.47;;
1725;SDS011;41776;48.260;8.928;2023-08-01T13:34:38;0.82;;;0.50;;
1725;SDS011;41776;48.260;8.928;2023-08-01T13:37:04;0.50;;;0.43;;
1725;SDS011;41776;48.260;8.928;2023-08-01T13:39:31;0.70;;;0.50;;
1725;SDS011;41776;48.260;8.928;2023-08-01T13:41:58;1.40;;;0.57;;
1725;SDS011;41776;48.260;8.928;2023-08-01T13:44:24;1.48;;;0.50;;
1725;SDS011;41776;48.260;8.928;2023-08-01T13:46:51;0.50;;;0.45;;
1725;SDS011;41776;48.260;8.928;2023-08-01T13:49:18;0.77;;;0.40;;
1725;SDS011;41776;48.260;8.928;2023-08-01T13:51:45;0.82;;;0.60;;
1725;SDS011;41776;48.260;8.928;2023-08-01T13:54:12;0.68;;;0.50;;
1725;SDS011;41776;48.260;8.928;2023-08-01T13:56:38;0.80;;;0.68;;
1725;SDS011;41776;48.260;8.928;2023-08-01T13:59:05;2.08;;;0.40;;
1725;SDS011;41776;48.260;8.928;2023-08-01T14:01:31;1.70;;;0.70;;
1725;SDS011;41776;48.260;8.928;2023-08-01T14:03:58;0.98;;;0.57;;
1725;SDS011;41776;48.260;8.928;2023-08-01T14:06:24;0.43;;;0.43;;
1725;SDS011;41776;48.260;8.928;2023-08-01T14:08:52;0.82;;;0.50;;
1725;SDS011;41776;48.260;8.928;2023-08-01T14:11:19;1.98;;;0.50;;
1725;SDS011;41776;48.260;8.928;2023-08-01T14:13:45;1.65;;;0.50;;
1725;SDS011;41776;48.260;8.928;2023-08-01T14:16:12;0.88;;;0.52;;
1725;SDS011;41776;48.260;8.928;2023-08-01T14:18:38;3.28;;;0.55;;
1725;SDS011;41776;48.260;8.928;2023-08-01T14:21:05;1.95;;;0.63;;
1725;SDS011;41776;48.260;8.928;2023-08-01T14:23:31;0.70;;;0.60;;
1725;SDS011;41776;48.260;8.928;2023-08-01T14:25:59;0.88;;;0.40;;
1725;SDS011;41776;48.260;8.928;2023-08-01T14:28:26;3.75;;;0.40;;
1725;SDS011;41776;48.260;8.928;2023-08-01T14:30:52;0.52;;;0.50;;
1725;SDS011;41776;48.260;8.928;2023-08-01T14:33:19;2.10;;;0.50;;
1725;SDS011;41776;48.260;8.928;2023-08-01T14:35:46;0.55;;;0.40;;
1725;SDS011;41776;48.260;8.928;2023-08-01T14:38:14;0.82;;;0.40;;
1725;SDS011;41776;48.260;8.928;2023-08-01T14:40:40;1.00;;;0.30;;
1725;SDS011;41776;48.260;8.928;2023-08-01T14:43:08;0.60;;;0.50;;
1725;SDS011;41776;48.260;8.928;2023-08-01T14:45:36;0.50;;;0.38;;
1725;SDS011;41776;48.260;8.928;2023-08-01T14:48:04;0.93;;;0.45;;
1725;SDS011;41776;48.260;8.928;2023-08-01T14:50:30;2.13;;;0.50;;
1725;SDS011;41776;48.260;8.928;2023-08-01T14:52:57;0.52;;;0.30;;
1725;SDS011;41776;48.260;8.928;2023-08-01T14:55:23;0.52;;;0.40;;
1725;SDS011;41776;48.260;8.928;2023-08-01T14:57:50;0.70;;;0.40;;
1725;SDS011;41776;48.260;8.928;2023-08-01T15:00:18;1.25;;;0.43;;